首页
METAR-TAF:

METAR-TAF

机场 :

梅赫拉巴德國際機場

德黑兰, 伊朗

纬度: 35-41N, 经度: 051-21E, 海拔: 1204米

当前天气观测

该预报发布于30分钟前的11:00 UTC
风速4节,风向南转西南
温度 10°C
湿度 29%
气压 1021 hPa
能見度: 6000
少量云层高于4000英尺

METAR: OIII 241100Z 21004KT 6000 FEW040 10/M07 Q1021 A3016 NOSIG

时间: 15:00 (11:30 UTC)

预报

该预报发布于6小时和0分钟前的05:30 UTC
预报有效从24日的 06点(UTC)到 25日的 12点(UTC)
风速4节,风向西北
能見度: 7000
少量云层高于10000英尺
成为
从 25日的 08点(UTC)到 25日的 10点(UTC)
少量云层高于4500英尺
多云层高于10000英尺

TAF: OIII 240530Z 2406/2512 31004KT 7000 FEW100 BECMG 2508/2510 FEW045 BKN100

超过4000个机场的气象观测和天气预报(METAR&TAF报告)。

可查询的气象台以黄色和红色小点在地图上表示。

将鼠标移到小点上方,可查看气象台名称。

然后点击查看天气观测和预报。

如需切换地图:点击带黑十字的绿色按钮放大地图;点击带横线的绿色按钮缩小地图;或者点击绿色箭头查看邻近地区的地图。


METAR-TAF: